createdAt,value
2022-12-04T00:00:36.592Z,1.35
2022-12-04T00:03:23.618Z,1.48
2022-12-04T00:06:13.649Z,1.52
2022-12-04T00:09:00.709Z,1.58
2022-12-04T00:11:47.640Z,1.67
2022-12-04T00:14:40.590Z,1.74
2022-12-04T00:17:41.484Z,1.79
2022-12-04T00:20:28.401Z,1.89
2022-12-04T00:23:15.317Z,1.89
2022-12-04T00:26:14.172Z,1.97
2022-12-04T00:29:01.128Z,2.03
2022-12-04T00:31:48.504Z,2.04
2022-12-04T00:34:35.485Z,2.08
2022-12-04T00:37:22.386Z,2.14
2022-12-04T00:40:09.933Z,2.14
2022-12-04T00:42:56.868Z,2.13
2022-12-04T00:45:44.069Z,2.16
2022-12-04T00:48:31.093Z,2.28
2022-12-04T00:51:21.107Z,2.25
2022-12-04T00:54:07.998Z,2.19
2022-12-04T00:56:54.923Z,2.26
2022-12-04T00:59:41.836Z,2.27
2022-12-04T01:02:30.630Z,2.31
2022-12-04T01:05:17.809Z,2.29
2022-12-04T01:08:04.782Z,2.38
2022-12-04T01:10:52.252Z,2.44
2022-12-04T01:13:39.151Z,2.37
2022-12-04T01:16:30.315Z,2.35
2022-12-04T01:19:17.413Z,2.31
2022-12-04T01:22:04.422Z,2.28
2022-12-04T01:24:55.660Z,2.26
2022-12-04T01:27:42.523Z,2.29
2022-12-04T01:30:29.433Z,2.23
2022-12-04T01:33:16.382Z,2.21
2022-12-04T01:36:05.877Z,2.08
2022-12-04T01:38:53.030Z,1.97
2022-12-04T01:41:39.929Z,1.74
2022-12-04T01:44:27.095Z,1.46
2022-12-04T01:47:14.003Z,1.27
2022-12-04T01:50:00.976Z,1.21
2022-12-04T01:52:48.037Z,1.26
2022-12-04T01:55:35.066Z,1.15
2022-12-04T01:58:27.703Z,0.94
2022-12-04T02:01:14.691Z,0.93
2022-12-04T02:04:02.931Z,1.00
2022-12-04T02:06:49.916Z,1.01
2022-12-04T02:09:39.506Z,1.04
2022-12-04T02:13:17.510Z,1.07
2022-12-04T02:16:20.035Z,1.06
2022-12-04T02:19:50.109Z,1.19
2022-12-04T02:23:02.364Z,1.23
2022-12-04T02:26:34.646Z,1.29
2022-12-04T02:29:41.142Z,1.37
2022-12-04T02:32:37.186Z,1.43
2022-12-04T02:35:33.281Z,1.61
2022-12-04T02:38:25.761Z,1.65
2022-12-04T02:41:27.628Z,1.83
2022-12-04T02:44:21.800Z,1.93
2022-12-04T02:47:12.931Z,1.96
2022-12-04T02:50:04.281Z,2.03
2022-12-04T02:53:17.666Z,2.04
2022-12-04T02:56:08.852Z,2.13
2022-12-04T02:59:02.347Z,2.12
2022-12-04T03:01:53.732Z,2.23
2022-12-04T03:04:42.518Z,2.38
2022-12-04T03:07:37.451Z,2.44
2022-12-04T03:10:38.500Z,2.53
2022-12-04T03:14:00.741Z,2.52
2022-12-04T03:16:50.152Z,2.60
2022-12-04T03:19:41.805Z,2.62
2022-12-04T03:22:31.586Z,2.64
2022-12-04T03:25:19.170Z,2.57
2022-12-04T03:28:14.427Z,2.56
2022-12-04T03:31:06.897Z,2.66
2022-12-04T03:33:57.833Z,2.64
2022-12-04T03:36:55.904Z,2.68
2022-12-04T03:40:29.126Z,2.72
2022-12-04T03:43:44.888Z,2.84
2022-12-04T03:47:10.585Z,2.85
2022-12-04T03:50:07.745Z,2.96
2022-12-04T03:53:12.961Z,2.79
2022-12-04T03:56:14.325Z,2.76
2022-12-04T03:59:09.240Z,2.81
2022-12-04T04:01:59.804Z,2.68
2022-12-04T04:04:51.484Z,2.66
2022-12-04T04:07:51.182Z,2.65
2022-12-04T04:10:38.239Z,2.59
2022-12-04T04:14:09.956Z,2.52
2022-12-04T04:17:23.846Z,2.57
2022-12-04T04:20:37.288Z,2.54
2022-12-04T04:23:45.879Z,2.54
2022-12-04T04:26:37.406Z,2.58
2022-12-04T04:29:24.649Z,2.55
2022-12-04T04:32:20.340Z,2.57
2022-12-04T04:35:22.447Z,2.58
2022-12-04T04:38:28.678Z,2.60
2022-12-04T04:41:23.721Z,2.62
2022-12-04T04:45:03.188Z,2.64
2022-12-04T04:48:05.662Z,2.64
2022-12-04T04:50:54.680Z,2.58
2022-12-04T04:53:51.024Z,2.61
2022-12-04T04:56:43.559Z,2.69
2022-12-04T04:59:30.479Z,2.78
2022-12-04T05:02:17.441Z,2.73
2022-12-04T05:05:06.416Z,2.69
2022-12-04T05:07:53.498Z,2.66
2022-12-04T05:10:40.493Z,2.64
2022-12-04T05:13:29.281Z,2.63
2022-12-04T05:16:16.643Z,2.70
2022-12-04T05:19:22.216Z,2.65
2022-12-04T05:22:09.609Z,2.71
2022-12-04T05:24:56.866Z,2.72
2022-12-04T05:27:43.768Z,2.75
2022-12-04T05:30:30.681Z,2.67
2022-12-04T05:33:17.541Z,2.59
2022-12-04T05:36:08.040Z,2.60
2022-12-04T05:38:54.928Z,2.69
2022-12-04T05:41:41.823Z,2.70
2022-12-04T05:44:28.724Z,2.71
2022-12-04T05:47:16.649Z,2.78
2022-12-04T05:50:03.827Z,2.80
2022-12-04T05:52:51.063Z,2.67
2022-12-04T05:55:38.073Z,2.71
2022-12-04T05:58:25.585Z,2.77
2022-12-04T06:01:16.506Z,2.66
2022-12-04T06:04:03.673Z,2.60
2022-12-04T06:06:50.599Z,2.67
2022-12-04T06:09:37.730Z,2.69
2022-12-04T06:12:24.645Z,2.77
2022-12-04T06:15:11.651Z,2.75
2022-12-04T06:17:58.604Z,2.59
2022-12-04T06:20:45.633Z,2.61
2022-12-04T06:23:32.600Z,2.70
2022-12-04T06:26:21.610Z,2.67
2022-12-04T06:29:10.310Z,2.67
2022-12-04T06:31:57.387Z,2.74
2022-12-04T06:34:44.562Z,2.76
2022-12-04T06:37:31.474Z,2.80
2022-12-04T06:40:18.429Z,2.81
2022-12-04T06:43:06.490Z,2.75
2022-12-04T06:46:20.528Z,2.87
2022-12-04T06:49:07.707Z,2.84
2022-12-04T06:51:54.638Z,2.83
2022-12-04T06:54:41.790Z,2.87
2022-12-04T06:57:28.750Z,2.94
2022-12-04T07:00:16.690Z,2.98
2022-12-04T07:03:03.601Z,3.00
2022-12-04T07:05:51.116Z,2.93
2022-12-04T07:08:37.997Z,2.99
2022-12-04T07:11:25.089Z,2.97
2022-12-04T07:14:13.067Z,3.08
2022-12-04T07:17:00.056Z,3.04
2022-12-04T07:19:47.086Z,3.07
2022-12-04T07:22:34.064Z,3.00
2022-12-04T07:25:21.069Z,3.02
2022-12-04T07:28:08.046Z,3.10
2022-12-04T07:30:54.972Z,3.08
2022-12-04T07:33:42.599Z,3.09
2022-12-04T07:36:29.503Z,3.14
2022-12-04T07:39:16.564Z,3.12
2022-12-04T07:42:03.518Z,3.14
2022-12-04T07:44:50.512Z,3.18
2022-12-04T07:47:37.499Z,3.23
2022-12-04T07:50:24.421Z,3.31
2022-12-04T07:53:11.736Z,3.32
2022-12-04T07:55:58.651Z,3.29
2022-12-04T07:58:46.557Z,3.36
2022-12-04T08:01:33.840Z,3.41
2022-12-04T08:04:20.889Z,3.50
2022-12-04T08:07:07.916Z,3.56
2022-12-04T08:09:55.074Z,3.58
2022-12-04T08:12:42.161Z,3.61
2022-12-04T08:15:29.086Z,3.71
2022-12-04T08:18:16.145Z,3.70
2022-12-04T08:21:14.876Z,3.70
2022-12-04T08:24:02.702Z,3.76
2022-12-04T08:26:49.617Z,3.74
2022-12-04T08:29:36.716Z,3.78
2022-12-04T08:32:23.587Z,3.80
2022-12-04T08:35:10.602Z,4.07
2022-12-04T08:37:57.545Z,4.19
2022-12-04T08:40:44.483Z,4.19
2022-12-04T08:43:31.398Z,4.17
2022-12-04T08:46:18.715Z,4.22
2022-12-04T08:49:06.266Z,4.25
2022-12-04T08:51:53.197Z,4.26
2022-12-04T08:54:40.115Z,4.25
2022-12-04T08:57:27.033Z,4.21
2022-12-04T09:00:15.525Z,4.26
2022-12-04T09:03:02.464Z,4.23
2022-12-04T09:05:49.401Z,4.15
2022-12-04T09:08:37.469Z,4.01
2022-12-04T09:11:27.395Z,3.92
2022-12-04T09:14:14.328Z,3.89
2022-12-04T09:17:01.256Z,3.88
2022-12-04T09:19:48.168Z,3.83
2022-12-04T09:23:01.782Z,3.80
2022-12-04T09:25:42.690Z,3.81
2022-12-04T09:28:29.693Z,3.76
2022-12-04T09:31:17.674Z,3.82
2022-12-04T09:34:04.648Z,4.24
2022-12-04T09:36:51.684Z,5.04
2022-12-04T09:39:38.625Z,5.35
2022-12-04T09:42:57.756Z,5.16
2022-12-04T09:45:51.309Z,5.18
2022-12-04T09:48:42.002Z,4.79
2022-12-04T09:51:30.698Z,4.55
2022-12-04T09:54:23.475Z,4.35
2022-12-04T09:57:24.233Z,4.39
2022-12-04T10:00:13.812Z,4.33
2022-12-04T10:03:06.784Z,4.44
2022-12-04T10:06:18.256Z,4.49
2022-12-04T10:09:18.003Z,4.49
2022-12-04T10:12:28.746Z,4.59
2022-12-04T10:15:57.637Z,4.61
2022-12-04T10:18:57.012Z,4.72
2022-12-04T10:22:11.452Z,4.62
2022-12-04T10:25:06.816Z,4.76
2022-12-04T10:27:59.742Z,4.66
2022-12-04T10:30:47.478Z,4.69
2022-12-04T10:33:41.472Z,4.75
2022-12-04T10:36:32.833Z,4.78
2022-12-04T10:39:30.956Z,4.77
2022-12-04T10:42:41.263Z,4.78
2022-12-04T10:45:29.628Z,4.85
2022-12-04T10:48:26.424Z,4.82
2022-12-04T10:51:18.910Z,4.81
2022-12-04T10:54:40.658Z,4.76
2022-12-04T10:57:39.487Z,4.74
2022-12-04T11:00:35.070Z,4.69
2022-12-04T11:03:25.683Z,4.73
2022-12-04T11:06:14.881Z,4.67
2022-12-04T11:09:03.621Z,4.69
2022-12-04T11:11:51.276Z,4.74
2022-12-04T11:14:39.870Z,4.71
2022-12-04T11:17:29.931Z,4.69
2022-12-04T11:20:26.420Z,4.67
2022-12-04T11:23:16.286Z,4.67
2022-12-04T11:26:06.267Z,4.78
2022-12-04T11:28:55.149Z,4.74
2022-12-04T11:31:49.200Z,4.69
2022-12-04T11:34:41.528Z,4.75
2022-12-04T11:37:32.543Z,4.80
2022-12-04T11:40:20.406Z,4.79
2022-12-04T11:43:16.101Z,4.73
2022-12-04T11:46:06.844Z,4.72
2022-12-04T11:48:53.852Z,4.68
2022-12-04T11:52:03.165Z,4.72
2022-12-04T11:55:12.491Z,4.73
2022-12-04T11:59:01.164Z,4.69
2022-12-04T12:01:58.923Z,4.66
2022-12-04T12:05:23.492Z,4.61
2022-12-04T12:08:40.831Z,4.62
2022-12-04T12:11:38.519Z,4.58
2022-12-04T12:14:34.797Z,4.55
2022-12-04T12:17:29.318Z,4.57
2022-12-04T12:20:30.167Z,4.57
2022-12-04T12:23:29.209Z,4.58
2022-12-04T12:26:18.268Z,4.54
2022-12-04T12:29:16.712Z,4.53
2022-12-04T12:33:02.223Z,4.63
2022-12-04T12:36:16.117Z,4.56
2022-12-04T12:39:26.672Z,4.58
2022-12-04T12:42:28.609Z,4.54
2022-12-04T12:45:52.433Z,4.52
2022-12-04T12:49:18.567Z,4.46
2022-12-04T12:52:44.316Z,4.46
2022-12-04T12:55:36.900Z,4.57
2022-12-04T12:58:39.167Z,4.54
2022-12-04T13:02:07.870Z,4.57
2022-12-04T13:05:00.126Z,4.57
2022-12-04T13:08:08.561Z,4.52
2022-12-04T13:11:05.866Z,4.50
2022-12-04T13:13:57.006Z,4.54
2022-12-04T13:17:32.850Z,4.56
2022-12-04T13:20:36.288Z,4.49
2022-12-04T13:23:46.955Z,4.52
2022-12-04T13:27:20.315Z,4.48
2022-12-04T13:30:20.806Z,4.42
2022-12-04T13:33:59.491Z,4.44
2022-12-04T13:37:08.121Z,4.40
2022-12-04T13:40:32.516Z,4.41
2022-12-04T13:43:27.654Z,4.39
2022-12-04T13:46:39.042Z,4.47
2022-12-04T13:49:37.409Z,4.55
2022-12-04T13:52:40.657Z,4.56
2022-12-04T13:55:33.869Z,4.47
2022-12-04T13:58:30.961Z,4.44
2022-12-04T14:01:28.512Z,4.42
2022-12-04T14:04:35.937Z,4.45
2022-12-04T14:07:50.771Z,4.48
2022-12-04T14:10:39.197Z,4.52
2022-12-04T14:13:34.563Z,4.40
2022-12-04T14:16:25.599Z,4.38
2022-12-04T14:19:33.608Z,4.37
2022-12-04T14:22:41.921Z,4.38
2022-12-04T14:25:39.992Z,4.34
2022-12-04T14:28:38.606Z,4.23
2022-12-04T14:31:36.427Z,4.28
2022-12-04T14:34:32.021Z,4.30
2022-12-04T14:37:28.161Z,4.25
2022-12-04T14:40:23.767Z,4.25
2022-12-04T14:43:19.299Z,4.21
2022-12-04T14:46:42.548Z,4.08
2022-12-04T14:50:11.178Z,4.08
2022-12-04T14:53:14.791Z,4.04
2022-12-04T14:56:32.721Z,4.01
2022-12-04T14:59:22.418Z,4.01
2022-12-04T15:02:16.172Z,4.06
2022-12-04T15:05:08.587Z,4.00
2022-12-04T15:08:00.034Z,3.99
2022-12-04T15:11:09.593Z,3.88
2022-12-04T15:14:04.900Z,3.93
2022-12-04T15:17:02.665Z,3.96
2022-12-04T15:19:49.586Z,3.86
2022-12-04T15:22:37.018Z,3.81
2022-12-04T15:25:31.464Z,3.74
2022-12-04T15:28:22.281Z,3.74
2022-12-04T15:31:33.038Z,3.71
2022-12-04T15:34:24.765Z,3.70
2022-12-04T15:37:24.097Z,3.73
2022-12-04T15:40:20.696Z,3.72
2022-12-04T15:43:16.983Z,3.67
2022-12-04T15:46:21.242Z,3.73
2022-12-04T15:49:18.149Z,3.69
2022-12-04T15:52:13.961Z,3.65
2022-12-04T15:55:02.424Z,3.60
2022-12-04T15:57:59.117Z,3.63
2022-12-04T16:00:46.274Z,3.46
2022-12-04T16:03:48.664Z,3.41
2022-12-04T16:06:46.569Z,3.46
2022-12-04T16:09:33.467Z,3.44
2022-12-04T16:12:25.735Z,3.46
2022-12-04T16:15:12.750Z,3.40
2022-12-04T16:17:59.805Z,3.36
2022-12-04T16:20:46.754Z,3.37
2022-12-04T16:23:33.763Z,3.35
2022-12-04T16:26:20.713Z,3.37
2022-12-04T16:29:07.825Z,3.41
2022-12-04T16:31:59.587Z,3.40
2022-12-04T16:34:49.776Z,3.39
2022-12-04T16:37:36.693Z,3.34
2022-12-04T16:40:23.608Z,3.31
2022-12-04T16:43:13.383Z,3.34
2022-12-04T16:46:01.866Z,3.30
2022-12-04T16:48:48.837Z,3.36
2022-12-04T16:51:37.437Z,3.35
2022-12-04T16:54:24.316Z,3.29
2022-12-04T16:57:11.237Z,3.21
2022-12-04T16:59:58.484Z,3.28
2022-12-04T17:02:46.325Z,3.23
2022-12-04T17:05:35.737Z,3.29
2022-12-04T17:08:23.427Z,3.18
2022-12-04T17:11:13.604Z,3.16
2022-12-04T17:14:02.748Z,3.16
2022-12-04T17:16:49.682Z,3.22
2022-12-04T17:19:36.658Z,3.29
2022-12-04T17:22:26.358Z,3.31
2022-12-04T17:25:13.980Z,3.26
2022-12-04T17:28:00.861Z,3.25
2022-12-04T17:30:47.779Z,3.25
2022-12-04T17:33:36.740Z,3.30
2022-12-04T17:36:26.193Z,3.31
2022-12-04T17:39:13.514Z,3.32
2022-12-04T17:42:00.448Z,3.24
2022-12-04T17:44:47.361Z,3.32
2022-12-04T17:47:35.685Z,3.28
2022-12-04T17:50:22.596Z,3.34
2022-12-04T17:53:09.491Z,3.40
2022-12-04T17:55:56.390Z,3.42
2022-12-04T17:58:43.917Z,3.36
2022-12-04T18:01:31.379Z,3.41
2022-12-04T18:04:20.261Z,3.39
2022-12-04T18:07:07.617Z,3.45
2022-12-04T18:09:54.780Z,3.44
2022-12-04T18:12:41.989Z,3.49
2022-12-04T18:15:29.037Z,3.86
2022-12-04T18:18:15.973Z,3.70
2022-12-04T18:21:05.529Z,3.68
2022-12-04T18:23:52.820Z,3.55
2022-12-04T18:26:42.812Z,3.57
2022-12-04T18:29:29.742Z,3.55
2022-12-04T18:32:16.690Z,3.58
2022-12-04T18:35:03.735Z,3.62
2022-12-04T18:37:50.869Z,3.61
2022-12-04T18:40:37.799Z,3.57
2022-12-04T18:43:24.774Z,3.47
2022-12-04T18:46:13.938Z,3.44
2022-12-04T18:49:03.986Z,3.47
2022-12-04T18:51:50.906Z,3.42
2022-12-04T18:54:37.825Z,3.44
2022-12-04T18:57:24.698Z,3.31
2022-12-04T19:00:12.128Z,3.35
2022-12-04T19:02:58.977Z,3.34
2022-12-04T19:05:49.735Z,3.43
2022-12-04T19:08:41.440Z,3.40
2022-12-04T19:11:29.949Z,3.37
2022-12-04T19:14:23.416Z,3.42
2022-12-04T19:17:11.388Z,3.42
2022-12-04T19:19:58.588Z,3.38
2022-12-04T19:22:45.732Z,3.29
2022-12-04T19:25:32.657Z,3.26
2022-12-04T19:28:19.572Z,3.33
2022-12-04T19:31:14.776Z,3.32
2022-12-04T19:34:02.531Z,3.30
2022-12-04T19:36:50.106Z,3.40
2022-12-04T19:39:37.180Z,3.40
2022-12-04T19:42:24.098Z,3.48
2022-12-04T19:45:11.259Z,3.54
2022-12-04T19:47:58.084Z,3.60
2022-12-04T19:50:45.035Z,3.61
2022-12-04T19:53:35.053Z,3.62
2022-12-04T19:56:27.645Z,3.65
2022-12-04T19:59:14.683Z,3.61
2022-12-04T20:02:01.653Z,3.61
2022-12-04T20:04:48.523Z,3.56
2022-12-04T20:07:35.522Z,3.57
2022-12-04T20:10:22.452Z,3.58
2022-12-04T20:13:09.495Z,3.63
2022-12-04T20:16:00.913Z,3.59
2022-12-04T20:18:48.270Z,3.54
2022-12-04T20:21:35.204Z,3.51
2022-12-04T20:24:22.232Z,3.51
2022-12-04T20:27:09.701Z,3.50
2022-12-04T20:29:56.851Z,3.47
2022-12-04T20:32:43.956Z,3.44
2022-12-04T20:35:30.894Z,3.47
2022-12-04T20:38:17.916Z,3.46
2022-12-04T20:41:06.579Z,3.43
2022-12-04T20:43:53.671Z,3.44
2022-12-04T20:46:42.474Z,3.37
2022-12-04T20:49:29.516Z,3.42
2022-12-04T20:52:16.882Z,3.43
2022-12-04T20:55:05.754Z,3.37
2022-12-04T20:57:52.696Z,3.31
2022-12-04T21:00:39.783Z,3.35
2022-12-04T21:03:27.737Z,3.36
2022-12-04T21:06:20.063Z,3.30
2022-12-04T21:09:13.283Z,3.22
2022-12-04T21:12:00.213Z,3.16
2022-12-04T21:15:05.762Z,3.12
2022-12-04T21:17:52.667Z,3.17
2022-12-04T21:20:39.597Z,3.18
2022-12-04T21:23:26.481Z,3.14
2022-12-04T21:26:14.550Z,3.09
2022-12-04T21:29:02.571Z,3.07
2022-12-04T21:31:49.567Z,3.09
2022-12-04T21:34:36.513Z,3.09
2022-12-04T21:37:23.442Z,3.07
2022-12-04T21:40:10.956Z,3.04
2022-12-04T21:42:57.883Z,3.09
2022-12-04T21:45:45.863Z,3.07
2022-12-04T21:48:35.640Z,3.02
2022-12-04T21:51:48.718Z,3.06
2022-12-04T21:54:29.886Z,2.96
2022-12-04T21:57:17.210Z,2.97
2022-12-04T22:00:05.758Z,2.90
2022-12-04T22:02:52.736Z,2.89
2022-12-04T22:05:43.397Z,2.88
2022-12-04T22:08:31.054Z,2.81
2022-12-04T22:11:19.090Z,2.82
2022-12-04T22:14:06.001Z,2.81
2022-12-04T22:16:54.251Z,2.81
2022-12-04T22:19:41.229Z,2.80
2022-12-04T22:22:28.265Z,2.64
2022-12-04T22:25:15.184Z,2.60
2022-12-04T22:28:02.161Z,2.50
2022-12-04T22:30:49.316Z,2.50
2022-12-04T22:33:37.655Z,2.51
2022-12-04T22:36:30.405Z,2.41
2022-12-04T22:39:17.557Z,2.38
2022-12-04T22:42:04.442Z,2.33
2022-12-04T22:44:51.377Z,2.35
2022-12-04T22:47:38.799Z,2.25
2022-12-04T22:50:25.798Z,2.28
2022-12-04T22:53:12.725Z,2.33
2022-12-04T22:56:05.519Z,2.42
2022-12-04T22:58:53.319Z,2.38
2022-12-04T23:01:40.333Z,2.30
2022-12-04T23:04:28.331Z,2.27
2022-12-04T23:07:15.349Z,2.25
2022-12-04T23:10:02.247Z,2.33
2022-12-04T23:12:49.174Z,2.30
2022-12-04T23:15:39.788Z,2.17
2022-12-04T23:18:27.562Z,2.16
2022-12-04T23:21:15.098Z,2.17
2022-12-04T23:24:02.335Z,2.14
2022-12-04T23:26:49.249Z,2.26
2022-12-04T23:29:52.616Z,2.28
2022-12-04T23:32:39.872Z,2.43
2022-12-04T23:35:26.833Z,2.50
2022-12-04T23:38:13.757Z,2.56
2022-12-04T23:41:02.964Z,2.61
2022-12-04T23:43:51.383Z,2.69
2022-12-04T23:46:38.381Z,2.76
2022-12-04T23:49:25.378Z,2.81
2022-12-04T23:52:12.385Z,2.84
2022-12-04T23:54:59.313Z,2.94
2022-12-04T23:57:46.251Z,2.93
